createdAt,value
2022-10-15T00:01:51.144Z,112.80
2022-10-15T00:04:21.332Z,117.80
2022-10-15T00:06:49.999Z,102.05
2022-10-15T00:09:18.846Z,113.15
2022-10-15T00:11:47.871Z,120.97
2022-10-15T00:14:16.586Z,108.45
2022-10-15T00:16:45.329Z,109.85
2022-10-15T00:19:14.447Z,102.22
2022-10-15T00:21:44.710Z,118.80
2022-10-15T00:24:13.837Z,104.22
2022-10-15T00:26:42.696Z,98.70
2022-10-15T00:29:14.795Z,107.20
2022-10-15T00:31:43.383Z,98.38
2022-10-15T00:34:12.268Z,108.78
2022-10-15T00:36:40.945Z,103.13
2022-10-15T00:39:12.261Z,96.22
2022-10-15T00:41:43.903Z,105.88
2022-10-15T00:44:49.243Z,104.80
2022-10-15T00:47:20.465Z,125.50
2022-10-15T00:49:54.503Z,108.32
2022-10-15T00:52:25.857Z,106.65
2022-10-15T00:54:58.836Z,105.22
2022-10-15T00:57:27.737Z,110.28
2022-10-15T00:59:59.902Z,105.13
2022-10-15T01:02:28.833Z,109.25
2022-10-15T01:04:57.686Z,110.32
2022-10-15T01:07:26.209Z,109.13
2022-10-15T01:09:56.790Z,118.03
2022-10-15T01:12:32.728Z,117.45
2022-10-15T01:15:06.329Z,122.78
2022-10-15T01:17:41.842Z,128.40
2022-10-15T01:20:49.339Z,116.32
2022-10-15T01:24:05.997Z,127.03
2022-10-15T01:27:00.269Z,137.40
2022-10-15T01:29:47.164Z,130.80
2022-10-15T01:32:21.469Z,135.05
2022-10-15T01:34:55.113Z,121.15
2022-10-15T01:37:28.678Z,128.07
2022-10-15T01:40:03.452Z,119.20
2022-10-15T01:42:42.525Z,125.13
2022-10-15T01:45:14.443Z,118.13
2022-10-15T01:47:58.297Z,132.77
2022-10-15T01:50:28.893Z,128.05
2022-10-15T01:52:58.022Z,119.13
2022-10-15T01:55:27.697Z,135.25
2022-10-15T01:57:59.573Z,133.05
2022-10-15T02:00:28.455Z,129.35
2022-10-15T02:03:02.656Z,125.47
2022-10-15T02:05:35.998Z,139.65
2022-10-15T02:08:35.272Z,132.10
2022-10-15T02:11:06.750Z,124.75
2022-10-15T02:13:43.706Z,103.03
2022-10-15T02:16:14.320Z,123.60
2022-10-15T02:21:19.064Z,132.73
2022-10-15T02:23:51.932Z,118.97
2022-10-15T02:26:21.702Z,129.20
2022-10-15T02:28:54.114Z,109.28
2022-10-15T02:31:24.807Z,116.00
2022-10-15T02:33:58.943Z,124.47
2022-10-15T02:36:27.887Z,130.32
2022-10-15T02:38:58.343Z,122.85
2022-10-15T02:41:29.220Z,108.00
2022-10-15T02:43:58.335Z,127.20
2022-10-15T02:46:27.019Z,128.70
2022-10-15T02:48:58.521Z,138.43
2022-10-15T02:51:27.238Z,133.77
2022-10-15T02:53:56.900Z,115.93
2022-10-15T02:56:26.540Z,119.55
2022-10-15T02:58:55.574Z,125.88
2022-10-15T03:01:24.709Z,127.50
2022-10-15T03:03:53.599Z,116.47
2022-10-15T03:06:24.034Z,122.57
2022-10-15T03:08:53.314Z,125.82
2022-10-15T03:11:23.841Z,121.05
2022-10-15T03:13:53.529Z,132.83
2022-10-15T03:16:23.131Z,132.27
2022-10-15T03:18:52.125Z,133.65
2022-10-15T03:21:21.396Z,135.32
2022-10-15T03:23:51.491Z,129.27
2022-10-15T03:26:24.525Z,139.40
2022-10-15T03:28:52.994Z,115.93
2022-10-15T03:31:34.564Z,136.10
2022-10-15T03:34:05.227Z,133.75
2022-10-15T03:36:34.214Z,88.72
2022-10-15T03:39:08.473Z,115.70
2022-10-15T03:41:38.126Z,91.13
2022-10-15T03:44:09.152Z,132.03
2022-10-15T03:46:42.241Z,133.52
2022-10-15T03:49:11.273Z,117.93
2022-10-15T03:51:40.180Z,110.03
2022-10-15T03:54:14.647Z,111.95
2022-10-15T03:56:50.012Z,128.95
2022-10-15T03:59:31.053Z,115.93
2022-10-15T04:02:03.101Z,121.60
2022-10-15T04:04:33.313Z,117.65
2022-10-15T04:07:03.566Z,105.95
2022-10-15T04:09:35.657Z,109.95
2022-10-15T04:12:23.543Z,120.82
2022-10-15T04:14:52.989Z,105.68
2022-10-15T04:17:21.871Z,105.78
2022-10-15T04:19:51.474Z,105.17
2022-10-15T04:22:21.825Z,84.90
2022-10-15T04:25:00.288Z,103.10
2022-10-15T04:27:30.398Z,99.00
2022-10-15T04:30:11.439Z,95.45
2022-10-15T04:32:45.221Z,93.30
2022-10-15T04:35:14.957Z,102.88
2022-10-15T04:38:00.208Z,111.10
2022-10-15T04:40:36.150Z,92.22
2022-10-15T04:43:05.252Z,108.53
2022-10-15T04:45:34.542Z,100.93
2022-10-15T04:48:03.568Z,100.50
2022-10-15T04:50:32.640Z,92.60
2022-10-15T04:53:19.750Z,94.47
2022-10-15T04:55:53.869Z,97.47
2022-10-15T04:58:22.811Z,86.82
2022-10-15T05:00:51.689Z,82.13
2022-10-15T05:03:38.500Z,89.28
2022-10-15T05:06:11.819Z,88.68
2022-10-15T05:08:43.570Z,93.63
2022-10-15T05:11:23.849Z,86.70
2022-10-15T05:13:52.914Z,84.95
2022-10-15T05:16:23.281Z,87.43
2022-10-15T05:18:54.252Z,84.95
2022-10-15T05:21:23.795Z,86.40
2022-10-15T05:23:56.564Z,92.70
2022-10-15T05:26:46.739Z,90.85
2022-10-15T05:29:16.894Z,83.43
2022-10-15T05:31:46.119Z,83.82
2022-10-15T05:34:22.247Z,75.30
2022-10-15T05:37:01.913Z,79.25
2022-10-15T05:39:30.761Z,71.72
2022-10-15T05:42:02.487Z,78.13
2022-10-15T05:44:39.315Z,68.65
2022-10-15T05:47:11.989Z,74.13
2022-10-15T05:49:42.305Z,77.93
2022-10-15T05:52:17.063Z,74.90
2022-10-15T05:55:06.782Z,68.90
2022-10-15T05:57:36.942Z,72.22
2022-10-15T06:00:08.376Z,68.22
2022-10-15T06:02:42.726Z,63.80
2022-10-15T06:05:13.291Z,71.82
2022-10-15T06:07:41.704Z,66.82
2022-10-15T06:10:10.921Z,74.18
2022-10-15T06:12:41.097Z,60.33
2022-10-15T06:15:10.828Z,62.55
2022-10-15T06:17:39.621Z,62.65
2022-10-15T06:20:09.001Z,66.60
2022-10-15T06:25:11.403Z,46.25
2022-10-15T06:27:41.796Z,48.63
2022-10-15T06:30:11.403Z,44.83
2022-10-15T06:32:40.069Z,46.77
2022-10-15T06:35:09.394Z,44.80
2022-10-15T06:37:37.795Z,49.72
2022-10-15T06:40:07.513Z,54.35
2022-10-15T06:42:44.177Z,47.42
2022-10-15T06:45:15.749Z,45.33
2022-10-15T06:47:46.975Z,46.13
2022-10-15T06:50:15.722Z,47.78
2022-10-15T06:52:44.629Z,45.95
2022-10-15T06:55:13.352Z,53.00
2022-10-15T06:57:43.662Z,42.88
2022-10-15T07:00:15.943Z,47.78
2022-10-15T07:02:44.670Z,43.72
2022-10-15T07:05:13.291Z,42.28
2022-10-15T07:07:41.897Z,43.10
2022-10-15T07:10:11.260Z,45.65
2022-10-15T07:12:44.406Z,38.03
2022-10-15T07:15:13.357Z,41.45
2022-10-15T07:17:48.314Z,47.22
2022-10-15T07:20:21.706Z,39.90
2022-10-15T07:22:53.541Z,45.05
2022-10-15T07:25:22.272Z,40.93
2022-10-15T07:27:52.548Z,38.45
2022-10-15T07:32:51.406Z,39.47
2022-10-15T07:35:20.297Z,35.83
2022-10-15T07:37:50.565Z,40.30
2022-10-15T07:40:19.762Z,37.85
2022-10-15T07:42:55.755Z,42.92
2022-10-15T07:45:26.750Z,37.30
2022-10-15T07:47:55.709Z,38.47
2022-10-15T07:50:24.839Z,40.78
2022-10-15T07:52:57.709Z,29.23
2022-10-15T07:55:26.562Z,36.33
2022-10-15T07:57:59.414Z,32.60
2022-10-15T08:00:28.296Z,37.35
2022-10-15T08:02:57.353Z,34.40
2022-10-15T08:05:26.182Z,35.50
2022-10-15T08:07:54.633Z,31.98
2022-10-15T08:10:23.555Z,32.35
2022-10-15T08:12:53.025Z,34.03
2022-10-15T08:15:23.145Z,33.50
2022-10-15T08:17:51.942Z,32.22
2022-10-15T08:20:21.848Z,28.85
2022-10-15T08:22:50.333Z,30.15
2022-10-15T08:25:19.121Z,31.73
2022-10-15T08:27:47.895Z,31.55
2022-10-15T08:30:16.658Z,36.10
2022-10-15T08:32:47.165Z,30.40
2022-10-15T08:37:45.203Z,33.28
2022-10-15T08:40:15.186Z,30.48
2022-10-15T08:42:46.635Z,32.17
2022-10-15T08:45:18.981Z,36.60
2022-10-15T08:47:52.883Z,33.97
2022-10-15T08:50:28.544Z,41.38
2022-10-15T08:52:57.774Z,28.10
2022-10-15T08:55:30.304Z,32.63
2022-10-15T08:58:02.321Z,34.90
2022-10-15T09:00:37.319Z,30.92
2022-10-15T09:03:12.915Z,26.08
2022-10-15T09:05:46.814Z,32.08
2022-10-15T09:08:22.941Z,36.85
2022-10-15T09:10:53.807Z,40.90
2022-10-15T09:13:27.502Z,33.75
2022-10-15T09:16:00.386Z,40.92
2022-10-15T09:18:33.828Z,33.03
2022-10-15T09:21:03.746Z,29.20
2022-10-15T09:23:34.320Z,40.30
2022-10-15T09:26:06.741Z,34.10
2022-10-15T09:28:46.421Z,39.20
2022-10-15T09:31:17.058Z,35.42
2022-10-15T09:33:51.943Z,33.55
2022-10-15T09:36:37.841Z,33.22
2022-10-15T09:39:18.545Z,35.35
2022-10-15T09:41:54.818Z,32.40
2022-10-15T09:44:24.723Z,33.58
2022-10-15T09:46:53.193Z,29.17
2022-10-15T09:49:25.816Z,31.60
2022-10-15T09:52:05.969Z,32.47
2022-10-15T09:54:43.183Z,28.42
2022-10-15T09:57:13.675Z,27.70
2022-10-15T09:59:54.729Z,31.83
2022-10-15T10:02:24.709Z,33.00
2022-10-15T10:04:55.519Z,32.42
2022-10-15T10:07:32.468Z,37.30
2022-10-15T10:10:03.880Z,26.63
2022-10-15T10:12:37.644Z,28.17
2022-10-15T10:15:10.006Z,28.67
2022-10-15T10:17:38.988Z,30.00
2022-10-15T10:20:18.678Z,25.20
2022-10-15T10:22:51.197Z,26.55
2022-10-15T10:25:32.274Z,23.75
2022-10-15T10:30:34.955Z,21.83
2022-10-15T10:33:04.041Z,26.73
2022-10-15T10:35:45.411Z,25.30
2022-10-15T10:38:22.160Z,25.23
2022-10-15T10:40:55.446Z,22.13
2022-10-15T10:43:27.791Z,22.90
2022-10-15T10:46:00.333Z,26.77
2022-10-15T10:48:30.703Z,24.95
2022-10-15T10:51:14.122Z,25.08
2022-10-15T10:53:52.044Z,23.42
2022-10-15T10:56:24.508Z,21.17
2022-10-15T10:59:02.107Z,23.42
2022-10-15T11:01:31.291Z,19.55
2022-10-15T11:04:02.589Z,23.00
2022-10-15T11:06:46.767Z,20.13
2022-10-15T11:09:37.776Z,23.55
2022-10-15T11:12:15.982Z,20.98
2022-10-15T11:14:49.559Z,18.50
2022-10-15T11:17:24.552Z,19.73
2022-10-15T11:22:57.571Z,21.17
2022-10-15T11:25:34.343Z,17.23
2022-10-15T11:28:17.681Z,21.70
2022-10-15T11:30:51.795Z,20.17
2022-10-15T11:33:32.921Z,19.48
2022-10-15T11:36:18.458Z,22.25
2022-10-15T11:38:56.303Z,19.60
2022-10-15T11:41:33.731Z,24.00
2022-10-15T11:44:15.558Z,21.52
2022-10-15T11:46:48.866Z,20.45
2022-10-15T11:49:28.193Z,27.85
2022-10-15T11:52:09.480Z,19.53
2022-10-15T11:54:41.004Z,18.95
2022-10-15T11:57:10.542Z,21.75
2022-10-15T11:59:45.168Z,19.47
2022-10-15T12:02:17.048Z,18.40
2022-10-15T12:04:47.959Z,21.15
2022-10-15T12:07:20.373Z,22.98
2022-10-15T12:09:53.223Z,16.35
2022-10-15T12:12:29.970Z,22.58
2022-10-15T12:15:09.571Z,20.67
2022-10-15T12:17:43.829Z,27.10
2022-10-15T12:20:15.951Z,17.42
2022-10-15T12:22:59.186Z,16.67
2022-10-15T12:25:45.080Z,16.73
2022-10-15T12:28:22.060Z,21.02
2022-10-15T12:31:01.674Z,16.02
2022-10-15T12:33:45.636Z,18.30
2022-10-15T12:36:28.124Z,24.27
2022-10-15T12:39:00.818Z,21.98
2022-10-15T12:41:48.798Z,16.83
2022-10-15T12:44:21.940Z,17.88
2022-10-15T12:46:50.982Z,19.15
2022-10-15T12:49:47.360Z,23.90
2022-10-15T12:52:54.207Z,24.33
2022-10-15T12:55:31.846Z,25.60
2022-10-15T12:58:08.134Z,24.45
2022-10-15T13:00:42.710Z,17.08
2022-10-15T13:03:18.408Z,18.80
2022-10-15T13:05:50.220Z,19.63
2022-10-15T13:08:31.622Z,22.77
2022-10-15T13:11:02.075Z,21.05
2022-10-15T13:13:33.982Z,20.35
2022-10-15T13:16:04.419Z,23.63
2022-10-15T13:18:33.450Z,22.50
2022-10-15T13:23:37.161Z,21.00
2022-10-15T13:26:19.433Z,20.10
2022-10-15T13:28:49.671Z,18.25
2022-10-15T13:31:27.383Z,19.52
2022-10-15T13:34:01.412Z,20.45
2022-10-15T13:36:33.576Z,20.83
2022-10-15T13:39:05.660Z,22.55
2022-10-15T13:41:36.480Z,21.52
2022-10-15T13:44:07.156Z,20.92
2022-10-15T13:46:39.754Z,24.65
2022-10-15T13:49:13.749Z,22.40
2022-10-15T13:51:44.047Z,15.35
2022-10-15T13:54:17.071Z,21.70
2022-10-15T13:56:50.546Z,20.77
2022-10-15T13:59:21.782Z,18.75
2022-10-15T14:01:53.147Z,23.50
2022-10-15T14:04:23.804Z,25.70
2022-10-15T14:07:03.255Z,19.52
2022-10-15T14:09:34.738Z,21.57
2022-10-15T14:12:03.823Z,21.52
2022-10-15T14:14:35.638Z,25.50
2022-10-15T14:17:06.302Z,24.60
2022-10-15T14:22:03.987Z,21.60
2022-10-15T14:24:34.972Z,16.75
2022-10-15T14:27:06.087Z,19.85
2022-10-15T14:29:41.587Z,25.67
2022-10-15T14:32:22.499Z,20.67
2022-10-15T14:34:52.109Z,24.85
2022-10-15T14:37:43.884Z,21.02
2022-10-15T14:40:22.142Z,20.33
2022-10-15T14:43:03.745Z,19.83
2022-10-15T14:45:42.922Z,31.50
2022-10-15T14:48:17.181Z,29.15
2022-10-15T14:50:46.285Z,25.90
2022-10-15T14:53:20.534Z,22.50
2022-10-15T14:55:52.468Z,25.65
2022-10-15T14:58:23.196Z,23.13
2022-10-15T15:00:59.204Z,22.73
2022-10-15T15:03:31.561Z,22.25
2022-10-15T15:06:00.408Z,22.40
2022-10-15T15:08:29.300Z,20.92
2022-10-15T15:13:30.047Z,22.52
2022-10-15T15:16:00.202Z,20.98
2022-10-15T15:18:29.164Z,19.52
2022-10-15T15:21:00.984Z,26.40
2022-10-15T15:23:30.307Z,24.58
2022-10-15T15:25:59.113Z,25.98
2022-10-15T15:28:29.636Z,22.65
2022-10-15T15:31:01.574Z,30.55
2022-10-15T15:33:30.758Z,25.65
2022-10-15T15:36:03.169Z,27.20
2022-10-15T15:38:32.176Z,28.30
2022-10-15T15:41:03.543Z,24.90
2022-10-15T15:43:32.232Z,31.08
2022-10-15T15:46:02.481Z,26.83
2022-10-15T15:51:02.673Z,23.33
2022-10-15T15:53:32.048Z,28.00
2022-10-15T15:56:01.317Z,30.30
2022-10-15T15:58:29.808Z,27.02
2022-10-15T16:00:58.537Z,28.38
2022-10-15T16:03:28.827Z,33.88
2022-10-15T16:06:01.153Z,27.65
2022-10-15T16:08:30.211Z,27.08
2022-10-15T16:11:02.450Z,28.75
2022-10-15T16:13:30.864Z,31.92
2022-10-15T16:15:59.706Z,32.70
2022-10-15T16:18:30.137Z,28.48
2022-10-15T16:20:59.177Z,36.05
2022-10-15T16:23:27.878Z,27.70
2022-10-15T16:25:57.594Z,35.28
2022-10-15T16:28:26.322Z,30.35
2022-10-15T16:30:55.078Z,23.48
2022-10-15T16:33:23.890Z,33.05
2022-10-15T16:35:54.612Z,26.05
2022-10-15T16:38:23.386Z,32.35
2022-10-15T16:40:51.730Z,30.55
2022-10-15T16:43:20.459Z,28.60
2022-10-15T16:45:56.391Z,28.80
2022-10-15T16:48:26.223Z,31.73
2022-10-15T16:51:02.957Z,24.45
2022-10-15T16:53:32.109Z,27.00
2022-10-15T16:56:02.390Z,28.17
2022-10-15T16:58:31.587Z,26.52
2022-10-15T17:01:01.392Z,28.73
2022-10-15T17:03:30.521Z,26.98
2022-10-15T17:05:59.880Z,28.35
2022-10-15T17:08:35.849Z,32.05
2022-10-15T17:11:10.808Z,35.67
2022-10-15T17:13:39.303Z,34.35
2022-10-15T17:16:12.801Z,34.53
2022-10-15T17:18:42.540Z,36.05
2022-10-15T17:21:12.575Z,44.03
2022-10-15T17:23:44.155Z,39.90
2022-10-15T17:26:15.218Z,39.67
2022-10-15T17:28:45.555Z,38.25
2022-10-15T17:31:16.049Z,38.10
2022-10-15T17:33:45.834Z,36.10
2022-10-15T17:36:16.385Z,40.53
2022-10-15T17:38:47.132Z,32.42
2022-10-15T17:41:18.000Z,33.88
2022-10-15T17:43:46.652Z,39.40
2022-10-15T17:46:17.167Z,41.35
2022-10-15T17:48:47.275Z,39.40
2022-10-15T17:51:18.052Z,39.15
2022-10-15T17:53:50.778Z,36.97
2022-10-15T17:56:21.526Z,37.17
2022-10-15T17:58:51.074Z,36.97
2022-10-15T18:01:28.142Z,37.03
2022-10-15T18:04:02.338Z,40.80
2022-10-15T18:06:31.071Z,35.53
2022-10-15T18:09:03.680Z,38.55
2022-10-15T18:11:34.271Z,38.47
2022-10-15T18:14:03.550Z,41.38
2022-10-15T18:16:32.350Z,38.22
2022-10-15T18:19:01.121Z,42.80
2022-10-15T18:21:29.938Z,39.30
2022-10-15T18:24:01.091Z,43.00
2022-10-15T18:26:32.379Z,37.00
2022-10-15T18:29:02.538Z,35.50
2022-10-15T18:31:31.492Z,37.40
2022-10-15T18:34:02.641Z,42.03
2022-10-15T18:36:33.013Z,42.42
2022-10-15T18:41:33.908Z,40.47
2022-10-15T18:44:04.700Z,49.90
2022-10-15T18:46:34.835Z,42.38
2022-10-15T18:49:03.811Z,39.03
2022-10-15T18:51:32.911Z,39.75
2022-10-15T18:54:03.552Z,37.92
2022-10-15T18:56:32.271Z,42.05
2022-10-15T18:59:01.308Z,41.33
2022-10-15T19:01:32.801Z,41.67
2022-10-15T19:04:03.207Z,42.90
2022-10-15T19:06:35.281Z,42.85
2022-10-15T19:09:07.392Z,38.88
2022-10-15T19:11:36.637Z,33.80
2022-10-15T19:14:05.953Z,44.30
2022-10-15T19:16:36.637Z,44.80
2022-10-15T19:19:12.650Z,37.40
2022-10-15T19:21:41.352Z,42.80
2022-10-15T19:24:11.549Z,42.20
2022-10-15T19:26:41.837Z,44.55
2022-10-15T19:29:10.577Z,36.80
2022-10-15T19:31:42.090Z,38.90
2022-10-15T19:34:11.233Z,39.13
2022-10-15T19:36:41.727Z,50.58
2022-10-15T19:41:46.893Z,38.33
2022-10-15T19:44:18.129Z,42.42
2022-10-15T19:46:47.537Z,40.05
2022-10-15T19:49:16.804Z,49.30
2022-10-15T19:51:48.038Z,41.75
2022-10-15T19:54:18.642Z,44.42
2022-10-15T19:56:47.504Z,44.38
2022-10-15T19:59:17.032Z,47.22
2022-10-15T20:01:45.541Z,37.92
2022-10-15T20:04:14.277Z,40.70
2022-10-15T20:06:43.754Z,40.28
2022-10-15T20:11:45.058Z,37.17
2022-10-15T20:14:13.724Z,43.90
2022-10-15T20:16:43.913Z,42.47
2022-10-15T20:19:13.149Z,45.25
2022-10-15T20:21:41.998Z,42.75
2022-10-15T20:24:10.644Z,40.95
2022-10-15T20:26:39.333Z,37.90
2022-10-15T20:29:09.946Z,43.67
2022-10-15T20:31:38.341Z,41.80
2022-10-15T20:34:07.096Z,39.35
2022-10-15T20:36:35.975Z,41.25
2022-10-15T20:39:04.898Z,35.47
2022-10-15T20:41:33.567Z,36.47
2022-10-15T20:44:02.434Z,40.65
2022-10-15T20:46:34.966Z,40.30
2022-10-15T20:49:08.694Z,39.20
2022-10-15T20:51:38.676Z,39.70
2022-10-15T20:54:07.812Z,34.15
2022-10-15T20:56:36.776Z,43.13
2022-10-15T20:59:06.016Z,32.05
2022-10-15T21:01:36.251Z,40.85
2022-10-15T21:04:06.018Z,30.52
2022-10-15T21:06:35.185Z,30.48
2022-10-15T21:09:04.112Z,30.38
2022-10-15T21:11:32.869Z,28.42
2022-10-15T21:14:01.711Z,29.90
2022-10-15T21:19:00.266Z,26.73
2022-10-15T21:21:29.355Z,33.28
2022-10-15T21:23:59.333Z,32.42
2022-10-15T21:26:28.241Z,31.70
2022-10-15T21:28:56.824Z,25.70
2022-10-15T21:31:28.818Z,28.20
2022-10-15T21:33:57.799Z,38.22
2022-10-15T21:36:28.885Z,31.38
2022-10-15T21:39:00.607Z,28.75
2022-10-15T21:41:30.798Z,28.17
2022-10-15T21:43:59.865Z,30.77
2022-10-15T21:46:30.589Z,26.27
2022-10-15T21:48:59.772Z,27.75
2022-10-15T21:51:31.330Z,33.13
2022-10-15T21:54:02.560Z,28.30
2022-10-15T21:56:31.720Z,25.73
2022-10-15T21:59:01.012Z,27.20
2022-10-15T22:01:31.722Z,28.50
2022-10-15T22:04:02.642Z,26.75
2022-10-15T22:06:36.309Z,29.85
2022-10-15T22:09:08.001Z,26.25
2022-10-15T22:11:38.179Z,27.90
2022-10-15T22:14:09.376Z,30.60
2022-10-15T22:16:39.892Z,30.77
2022-10-15T22:19:09.856Z,28.88
2022-10-15T22:21:40.136Z,26.50
2022-10-15T22:24:12.355Z,29.85
2022-10-15T22:26:42.721Z,26.63
2022-10-15T22:29:18.540Z,28.00
2022-10-15T22:31:46.919Z,23.45
2022-10-15T22:34:16.463Z,23.15
2022-10-15T22:36:46.762Z,25.02
2022-10-15T22:39:17.233Z,24.23
2022-10-15T22:44:16.738Z,33.13
2022-10-15T22:49:19.746Z,23.88
2022-10-15T22:51:50.768Z,26.63
2022-10-15T22:54:20.944Z,29.85
2022-10-15T22:56:50.273Z,22.48
2022-10-15T22:59:19.527Z,25.08
2022-10-15T23:01:48.093Z,30.25
2022-10-15T23:04:17.257Z,27.48
2022-10-15T23:06:46.995Z,25.70
2022-10-15T23:09:19.978Z,29.67
2022-10-15T23:11:48.826Z,25.13
2022-10-15T23:14:18.615Z,21.35
2022-10-15T23:16:48.352Z,20.27
2022-10-15T23:19:19.231Z,21.95
2022-10-15T23:21:49.867Z,22.10
2022-10-15T23:24:21.241Z,20.15
2022-10-15T23:26:50.293Z,21.05
2022-10-15T23:29:20.833Z,21.20
2022-10-15T23:34:22.553Z,18.30
2022-10-15T23:36:51.660Z,16.90
2022-10-15T23:39:23.570Z,22.73
2022-10-15T23:41:52.501Z,14.43
2022-10-15T23:44:21.617Z,18.90
2022-10-15T23:46:50.077Z,16.98
2022-10-15T23:49:18.993Z,20.33
2022-10-15T23:51:47.717Z,16.70
2022-10-15T23:54:18.812Z,13.93
2022-10-15T23:56:48.987Z,16.77
2022-10-15T23:59:18.448Z,12.90
